createdAt,value
2023-05-08T00:00:53.296Z,94914.00
2023-05-08T00:01:53.248Z,94916.00
2023-05-08T00:02:53.232Z,94912.00
2023-05-08T00:03:53.630Z,94914.00
2023-05-08T00:04:53.216Z,94914.00
2023-05-08T00:05:53.227Z,94914.00
2023-05-08T00:06:53.224Z,94918.00
2023-05-08T00:07:53.207Z,94914.00
2023-05-08T00:08:53.230Z,94912.00
2023-05-08T00:09:53.210Z,94916.00
2023-05-08T00:10:53.218Z,94916.00
2023-05-08T00:11:53.241Z,94914.00
2023-05-08T00:12:53.255Z,94914.00
2023-05-08T00:13:53.236Z,94914.00
2023-05-08T00:14:53.238Z,94912.00
2023-05-08T00:15:53.247Z,94914.00
2023-05-08T00:16:53.298Z,94914.00
2023-05-08T00:17:53.313Z,94914.00
2023-05-08T00:18:53.266Z,94914.00
2023-05-08T00:19:53.264Z,94914.00
2023-05-08T00:20:53.304Z,94914.00
2023-05-08T00:21:53.708Z,94914.00
2023-05-08T00:22:53.279Z,94916.00
2023-05-08T00:23:53.325Z,94916.00
2023-05-08T00:24:53.278Z,94916.00
2023-05-08T00:25:53.303Z,94916.00
2023-05-08T00:26:53.299Z,94916.00
2023-05-08T00:27:53.299Z,94912.00
2023-05-08T00:28:53.354Z,94910.00
2023-05-08T00:29:53.366Z,94910.00
2023-05-08T00:30:53.336Z,94908.00
2023-05-08T00:31:53.384Z,94906.00
2023-05-08T00:32:53.416Z,94906.00
2023-05-08T00:33:53.404Z,94906.00
2023-05-08T00:34:53.378Z,94906.00
2023-05-08T00:35:53.384Z,94906.00
2023-05-08T00:36:53.452Z,94908.00
2023-05-08T00:37:53.415Z,94906.00
2023-05-08T00:38:53.440Z,94912.00
2023-05-08T00:39:53.450Z,94910.00
2023-05-08T00:40:53.424Z,94910.00
2023-05-08T00:41:53.452Z,94912.00
2023-05-08T00:42:53.444Z,94914.00
2023-05-08T00:43:53.450Z,94912.00
2023-05-08T00:44:53.530Z,94912.00
2023-05-08T00:45:53.474Z,94914.00
2023-05-08T00:46:53.482Z,94914.00
2023-05-08T00:47:53.499Z,94914.00
2023-05-08T00:48:53.476Z,94916.00
2023-05-08T00:49:53.488Z,94914.00
2023-05-08T00:50:53.502Z,94916.00
2023-05-08T00:51:53.494Z,94916.00
2023-05-08T00:52:53.502Z,94918.00
2023-05-08T00:53:53.505Z,94918.00
2023-05-08T00:54:53.531Z,94918.00
2023-05-08T00:55:53.548Z,94918.00
2023-05-08T00:56:53.558Z,94918.00
2023-05-08T00:57:53.544Z,94920.00
2023-05-08T00:58:53.550Z,94920.00
2023-05-08T00:59:53.563Z,94924.00
2023-05-08T01:00:53.585Z,94922.00
2023-05-08T01:01:53.667Z,94924.00
2023-05-08T01:02:53.642Z,94922.00
2023-05-08T01:03:53.767Z,94924.00
2023-05-08T01:04:53.582Z,94922.00
2023-05-08T01:05:53.617Z,94922.00
2023-05-08T01:06:53.645Z,94928.00
2023-05-08T01:07:53.637Z,94922.00
2023-05-08T01:08:53.620Z,94922.00
2023-05-08T01:09:53.660Z,94924.00
2023-05-08T01:10:53.660Z,94926.00
2023-05-08T01:11:53.674Z,94926.00
2023-05-08T01:12:53.668Z,94928.00
2023-05-08T01:13:53.669Z,94928.00
2023-05-08T01:14:53.678Z,94928.00
2023-05-08T01:15:53.728Z,94928.00
2023-05-08T01:16:53.706Z,94928.00
2023-05-08T01:17:53.813Z,94928.00
2023-05-08T01:18:53.721Z,94928.00
2023-05-08T01:19:53.755Z,94930.00
2023-05-08T01:20:53.765Z,94928.00
2023-05-08T01:21:53.771Z,94932.00
2023-05-08T01:22:53.793Z,94932.00
2023-05-08T01:23:53.788Z,94932.00
2023-05-08T01:24:53.798Z,94932.00
2023-05-08T01:25:53.814Z,94934.00
2023-05-08T01:26:53.838Z,94935.00
2023-05-08T01:27:53.849Z,94935.00
2023-05-08T01:28:53.854Z,94935.00
2023-05-08T01:29:53.843Z,94935.00
2023-05-08T01:30:53.874Z,94937.00
2023-05-08T01:31:53.913Z,94935.00
2023-05-08T01:32:53.996Z,94939.00
2023-05-08T01:33:53.921Z,94939.00
2023-05-08T01:34:53.948Z,94943.00
2023-05-08T01:35:53.914Z,94941.00
2023-05-08T01:36:53.946Z,94943.00
2023-05-08T01:37:53.929Z,94943.00
2023-05-08T01:38:53.980Z,94943.00
2023-05-08T01:39:53.952Z,94943.00
2023-05-08T01:40:53.958Z,94943.00
2023-05-08T01:41:53.942Z,94945.00
2023-05-08T01:42:53.949Z,94943.00
2023-05-08T01:43:53.945Z,94945.00
2023-05-08T01:44:53.955Z,94947.00
2023-05-08T01:45:53.969Z,94947.00
2023-05-08T01:46:54.000Z,94945.00
2023-05-08T01:47:53.959Z,94947.00
2023-05-08T01:48:53.938Z,94947.00
2023-05-08T01:49:53.948Z,94947.00
2023-05-08T01:50:53.945Z,94947.00
2023-05-08T01:51:53.978Z,94949.00
2023-05-08T01:52:53.957Z,94947.00
2023-05-08T01:53:53.941Z,94951.00
2023-05-08T01:54:53.947Z,94949.00
2023-05-08T01:55:53.961Z,94951.00
2023-05-08T01:56:53.943Z,94949.00
2023-05-08T01:57:53.930Z,94947.00
2023-05-08T01:58:53.940Z,94949.00
2023-05-08T01:59:54.192Z,94949.00
2023-05-08T02:00:53.956Z,94949.00
2023-05-08T02:01:54.001Z,94947.00
2023-05-08T02:02:54.040Z,94947.00
2023-05-08T02:03:54.018Z,94947.00
2023-05-08T02:04:53.950Z,94945.00
2023-05-08T02:05:53.978Z,94947.00
2023-05-08T02:06:53.991Z,94945.00
2023-05-08T02:07:53.972Z,94945.00
2023-05-08T02:08:53.968Z,94945.00
2023-05-08T02:09:53.989Z,94943.00
2023-05-08T02:10:53.958Z,94945.00
2023-05-08T02:11:53.977Z,94943.00
2023-05-08T02:12:54.011Z,94943.00
2023-05-08T02:13:54.003Z,94941.00
2023-05-08T02:14:54.045Z,94945.00
2023-05-08T02:15:53.993Z,94941.00
2023-05-08T02:16:54.035Z,94939.00
2023-05-08T02:17:54.050Z,94941.00
2023-05-08T02:18:54.021Z,94941.00
2023-05-08T02:19:54.009Z,94941.00
2023-05-08T02:20:54.023Z,94939.00
2023-05-08T02:21:54.008Z,94941.00
2023-05-08T02:22:53.997Z,94943.00
2023-05-08T02:23:54.028Z,94941.00
2023-05-08T02:24:54.017Z,94941.00
2023-05-08T02:25:54.031Z,94939.00
2023-05-08T02:26:54.028Z,94943.00
2023-05-08T02:27:54.037Z,94937.00
2023-05-08T02:28:54.028Z,94945.00
2023-05-08T02:29:54.060Z,94943.00
2023-05-08T02:30:54.008Z,94943.00
2023-05-08T02:31:54.053Z,94943.00
2023-05-08T02:32:54.103Z,94941.00
2023-05-08T02:33:54.020Z,94943.00
2023-05-08T02:35:02.343Z,94943.00
2023-05-08T02:35:55.042Z,94943.00
2023-05-08T02:36:54.016Z,94943.00
2023-05-08T02:37:53.989Z,94943.00
2023-05-08T02:38:53.990Z,94941.00
2023-05-08T02:39:53.996Z,94941.00
2023-05-08T02:40:53.992Z,94943.00
2023-05-08T02:41:54.000Z,94941.00
2023-05-08T02:42:53.953Z,94943.00
2023-05-08T02:43:53.973Z,94943.00
2023-05-08T02:44:53.999Z,94945.00
2023-05-08T02:45:54.027Z,94943.00
2023-05-08T02:46:53.971Z,94945.00
2023-05-08T02:47:53.983Z,94945.00
2023-05-08T02:48:53.949Z,94947.00
2023-05-08T02:49:53.921Z,94947.00
2023-05-08T02:50:53.907Z,94941.00
2023-05-08T02:51:54.286Z,94941.00
2023-05-08T02:52:53.919Z,94941.00
2023-05-08T02:53:53.899Z,94945.00
2023-05-08T02:54:53.903Z,94941.00
2023-05-08T02:55:53.873Z,94939.00
2023-05-08T02:56:53.896Z,94945.00
2023-05-08T02:57:53.873Z,94941.00
2023-05-08T02:58:53.845Z,94941.00
2023-05-08T02:59:53.855Z,94939.00
2023-05-08T03:00:53.878Z,94939.00
2023-05-08T03:01:53.943Z,94937.00
2023-05-08T03:02:53.939Z,94937.00
2023-05-08T03:03:53.909Z,94937.00
2023-05-08T03:04:53.873Z,94935.00
2023-05-08T03:05:53.905Z,94935.00
2023-05-08T03:06:53.900Z,94934.00
2023-05-08T03:07:53.910Z,94934.00
2023-05-08T03:08:53.889Z,94930.00
2023-05-08T03:09:53.925Z,94930.00
2023-05-08T03:10:53.927Z,94928.00
2023-05-08T03:11:53.936Z,94928.00
2023-05-08T03:12:53.982Z,94926.00
2023-05-08T03:13:53.974Z,94926.00
2023-05-08T03:14:53.964Z,94924.00
2023-05-08T03:15:54.012Z,94922.00
2023-05-08T03:16:53.997Z,94924.00
2023-05-08T03:17:54.058Z,94922.00
2023-05-08T03:18:54.007Z,94924.00
2023-05-08T03:19:54.043Z,94922.00
2023-05-08T03:20:54.047Z,94920.00
2023-05-08T03:21:54.117Z,94922.00
2023-05-08T03:22:54.083Z,94922.00
2023-05-08T03:23:54.093Z,94922.00
2023-05-08T03:24:54.176Z,94920.00
2023-05-08T03:25:54.130Z,94920.00
2023-05-08T03:26:54.186Z,94920.00
2023-05-08T03:27:54.189Z,94918.00
2023-05-08T03:28:54.205Z,94918.00
2023-05-08T03:29:54.213Z,94916.00
2023-05-08T03:30:54.250Z,94916.00
2023-05-08T03:31:54.256Z,94918.00
2023-05-08T03:32:54.277Z,94916.00
2023-05-08T03:33:54.307Z,94916.00
2023-05-08T03:34:54.295Z,94916.00
2023-05-08T03:35:54.328Z,94916.00
2023-05-08T03:36:54.346Z,94916.00
2023-05-08T03:37:54.331Z,94918.00
2023-05-08T03:38:54.361Z,94920.00
2023-05-08T03:39:54.371Z,94920.00
2023-05-08T03:40:54.419Z,94922.00
2023-05-08T03:41:54.750Z,94926.00
2023-05-08T03:42:54.440Z,94924.00
2023-05-08T03:43:54.456Z,94926.00
2023-05-08T03:44:54.539Z,94928.00
2023-05-08T03:45:54.490Z,94930.00
2023-05-08T03:46:54.539Z,94930.00
2023-05-08T03:47:54.507Z,94932.00
2023-05-08T03:48:54.529Z,94932.00
2023-05-08T03:49:54.550Z,94934.00
2023-05-08T03:50:54.566Z,94937.00
2023-05-08T03:51:54.580Z,94935.00
2023-05-08T03:52:54.582Z,94935.00
2023-05-08T03:53:54.624Z,94937.00
2023-05-08T03:54:54.598Z,94939.00
2023-05-08T03:55:54.639Z,94939.00
2023-05-08T03:56:54.714Z,94939.00
2023-05-08T03:57:54.643Z,94939.00
2023-05-08T03:58:54.654Z,94939.00
2023-05-08T03:59:54.727Z,94939.00
2023-05-08T04:00:54.694Z,94941.00
2023-05-08T04:01:54.749Z,94941.00
2023-05-08T04:02:54.757Z,94945.00
2023-05-08T04:03:54.933Z,94945.00
2023-05-08T04:04:54.793Z,94945.00
2023-05-08T04:05:54.760Z,94945.00
2023-05-08T04:06:54.772Z,94949.00
2023-05-08T04:07:54.776Z,94947.00
2023-05-08T04:08:54.799Z,94949.00
2023-05-08T04:09:54.812Z,94951.00
2023-05-08T04:11:28.300Z,94949.00
2023-05-08T04:12:28.296Z,94951.00
2023-05-08T04:13:28.318Z,94951.00
2023-05-08T04:14:28.294Z,94953.00
2023-05-08T04:15:28.313Z,94955.00
2023-05-08T04:16:28.315Z,94957.00
2023-05-08T04:17:28.314Z,94957.00
2023-05-08T04:18:28.282Z,94959.00
2023-05-08T04:19:28.242Z,94961.00
2023-05-08T04:20:28.263Z,94963.00
2023-05-08T04:21:28.231Z,94963.00
2023-05-08T04:22:28.217Z,94963.00
2023-05-08T04:23:28.265Z,94965.00
2023-05-08T04:24:28.216Z,94965.00
2023-05-08T04:25:28.208Z,94967.00
2023-05-08T04:26:28.222Z,94967.00
2023-05-08T04:27:28.227Z,94969.00
2023-05-08T04:28:28.204Z,94969.00
2023-05-08T04:29:28.185Z,94969.00
2023-05-08T04:30:28.167Z,94969.00
2023-05-08T04:31:28.251Z,94967.00
2023-05-08T04:32:28.193Z,94969.00
2023-05-08T04:33:28.201Z,94971.00
2023-05-08T04:34:28.139Z,94969.00
2023-05-08T04:35:28.142Z,94971.00
2023-05-08T04:36:28.143Z,94973.00
2023-05-08T04:37:28.145Z,94975.00
2023-05-08T04:38:28.128Z,94975.00
2023-05-08T04:39:28.114Z,94975.00
2023-05-08T04:40:28.102Z,94977.00
2023-05-08T04:41:28.115Z,94979.00
2023-05-08T04:42:28.112Z,94979.00
2023-05-08T04:43:28.079Z,94979.00
2023-05-08T04:44:28.083Z,94981.00
2023-05-08T04:45:28.060Z,94982.00
2023-05-08T04:46:28.092Z,94981.00
2023-05-08T04:47:28.175Z,94982.00
2023-05-08T04:48:28.049Z,94982.00
2023-05-08T04:49:28.079Z,94982.00
2023-05-08T04:50:28.042Z,94984.00
2023-05-08T04:51:28.031Z,94984.00
2023-05-08T04:52:28.029Z,94986.00
2023-05-08T04:53:28.064Z,94986.00
2023-05-08T04:54:28.029Z,94990.00
2023-05-08T04:55:28.036Z,94988.00
2023-05-08T04:56:28.002Z,94988.00
2023-05-08T04:57:28.008Z,94988.00
2023-05-08T04:58:27.996Z,94988.00
2023-05-08T04:59:27.980Z,94990.00
2023-05-08T05:00:28.031Z,94990.00
2023-05-08T05:01:28.037Z,94988.00
2023-05-08T05:02:27.979Z,94992.00
2023-05-08T05:03:27.993Z,94990.00
2023-05-08T05:04:27.952Z,94992.00
2023-05-08T05:05:27.940Z,94994.00
2023-05-08T05:06:27.944Z,94992.00
2023-05-08T05:07:27.919Z,94992.00
2023-05-08T05:08:27.922Z,94996.00
2023-05-08T05:09:27.928Z,94996.00
2023-05-08T05:10:27.878Z,94998.00
2023-05-08T05:11:28.025Z,94998.00
2023-05-08T05:12:27.882Z,94998.00
2023-05-08T05:13:27.931Z,95000.00
2023-05-08T05:14:27.877Z,95000.00
2023-05-08T05:15:27.883Z,95000.00
2023-05-08T05:16:27.914Z,95002.00
2023-05-08T05:17:27.902Z,95002.00
2023-05-08T05:18:27.828Z,95002.00
2023-05-08T05:19:27.862Z,95002.00
2023-05-08T05:20:27.826Z,95004.00
2023-05-08T05:21:27.806Z,95004.00
2023-05-08T05:22:27.875Z,95006.00
2023-05-08T05:23:27.799Z,95008.00
2023-05-08T05:24:27.863Z,95006.00
2023-05-08T05:25:27.808Z,95008.00
2023-05-08T05:26:27.785Z,95010.00
2023-05-08T05:27:27.790Z,95012.00
2023-05-08T05:28:27.809Z,95014.00
2023-05-08T05:29:27.870Z,95012.00
2023-05-08T05:30:27.765Z,95014.00
2023-05-08T05:31:27.808Z,95016.00
2023-05-08T05:32:27.926Z,95014.00
2023-05-08T05:33:27.716Z,95016.00
2023-05-08T05:34:27.756Z,95016.00
2023-05-08T05:35:27.717Z,95016.00
2023-05-08T05:36:27.704Z,95014.00
2023-05-08T05:37:28.529Z,95020.00
2023-05-08T05:38:27.687Z,95018.00
2023-05-08T05:39:27.685Z,95020.00
2023-05-08T05:40:27.736Z,95022.00
2023-05-08T05:41:27.866Z,95022.00
2023-05-08T05:42:27.679Z,95022.00
2023-05-08T05:43:27.660Z,95026.00
2023-05-08T05:44:27.670Z,95024.00
2023-05-08T05:45:27.683Z,95026.00
2023-05-08T05:46:27.785Z,95028.00
2023-05-08T05:47:27.792Z,95026.00
2023-05-08T05:48:27.904Z,95028.00
2023-05-08T05:49:27.855Z,95028.00
2023-05-08T05:50:28.067Z,95032.00
2023-05-08T05:51:27.982Z,95032.00
2023-05-08T05:52:28.037Z,95032.00
2023-05-08T05:53:28.072Z,95032.00
2023-05-08T05:54:28.121Z,95034.00
2023-05-08T05:55:28.252Z,95032.00
2023-05-08T05:56:28.301Z,95030.00
2023-05-08T05:57:28.246Z,95030.00
2023-05-08T05:58:28.291Z,95030.00
2023-05-08T05:59:28.390Z,95036.00
2023-05-08T06:00:28.415Z,95034.00
2023-05-08T06:01:28.380Z,95032.00
2023-05-08T06:02:28.444Z,95032.00
2023-05-08T06:03:28.570Z,95036.00
2023-05-08T06:04:28.608Z,95034.00
2023-05-08T06:05:28.469Z,95032.00
2023-05-08T06:06:28.465Z,95036.00
2023-05-08T06:07:28.498Z,95036.00
2023-05-08T06:08:28.462Z,95037.00
2023-05-08T06:09:28.473Z,95034.00
2023-05-08T06:10:28.517Z,95036.00
2023-05-08T06:11:28.497Z,95037.00
2023-05-08T06:12:28.583Z,95037.00
2023-05-08T06:13:28.594Z,95037.00
2023-05-08T06:14:28.521Z,95039.00
2023-05-08T06:15:28.499Z,95039.00
2023-05-08T06:16:28.496Z,95039.00
2023-05-08T06:17:28.545Z,95041.00
2023-05-08T06:18:28.491Z,95039.00
2023-05-08T06:19:28.511Z,95037.00
2023-05-08T06:20:28.570Z,95039.00
2023-05-08T06:21:28.568Z,95039.00
2023-05-08T06:22:28.631Z,95041.00
2023-05-08T06:23:28.644Z,95043.00
2023-05-08T06:24:28.645Z,95041.00
2023-05-08T06:25:28.667Z,95045.00
2023-05-08T06:26:28.749Z,95047.00
2023-05-08T06:27:28.660Z,95049.00
2023-05-08T06:28:28.742Z,95047.00
2023-05-08T06:29:28.649Z,95045.00
2023-05-08T06:30:28.706Z,95047.00
2023-05-08T06:31:28.880Z,95047.00
2023-05-08T06:32:28.797Z,95045.00
2023-05-08T06:33:28.786Z,95045.00
2023-05-08T06:34:28.837Z,95043.00
2023-05-08T06:35:28.899Z,95047.00
2023-05-08T06:36:28.882Z,95047.00
2023-05-08T06:37:28.894Z,95045.00
2023-05-08T06:38:28.929Z,95045.00
2023-05-08T06:39:28.890Z,95049.00
2023-05-08T06:40:28.906Z,95047.00
2023-05-08T06:41:29.037Z,95045.00
2023-05-08T06:42:28.908Z,95047.00
2023-05-08T06:43:28.900Z,95045.00
2023-05-08T06:44:28.905Z,95049.00
2023-05-08T06:45:28.898Z,95049.00
2023-05-08T06:46:28.932Z,95047.00
2023-05-08T06:47:29.117Z,95047.00
2023-05-08T06:48:28.949Z,95043.00
2023-05-08T06:49:28.909Z,95045.00
2023-05-08T06:50:28.944Z,95045.00
2023-05-08T06:51:28.921Z,95045.00
2023-05-08T06:52:29.012Z,95045.00
2023-05-08T06:53:28.957Z,95045.00
2023-05-08T06:54:28.940Z,95049.00
2023-05-08T06:55:28.943Z,95045.00
2023-05-08T06:56:29.039Z,95047.00
2023-05-08T06:57:29.010Z,95045.00
2023-05-08T06:58:28.931Z,95047.00
2023-05-08T06:59:28.909Z,95047.00
2023-05-08T07:00:28.974Z,95045.00
2023-05-08T07:01:28.989Z,95045.00
2023-05-08T07:02:29.012Z,95043.00
2023-05-08T07:03:28.931Z,95045.00
2023-05-08T07:04:30.834Z,95045.00
2023-05-08T07:05:28.923Z,95045.00
2023-05-08T07:06:28.931Z,95049.00
2023-05-08T07:07:28.958Z,95049.00
2023-05-08T07:08:28.925Z,95047.00
2023-05-08T07:09:28.884Z,95053.00
2023-05-08T07:10:28.903Z,95053.00
2023-05-08T07:11:28.914Z,95051.00
2023-05-08T07:12:29.064Z,95053.00
2023-05-08T07:13:28.979Z,95053.00
2023-05-08T07:14:28.884Z,95051.00
2023-05-08T07:15:29.045Z,95049.00
2023-05-08T07:16:28.936Z,95051.00
2023-05-08T07:17:28.901Z,95055.00
2023-05-08T07:18:28.846Z,95055.00
2023-05-08T07:19:28.839Z,95055.00
2023-05-08T07:20:28.938Z,95053.00
2023-05-08T07:21:28.854Z,95053.00
2023-05-08T07:22:28.924Z,95053.00
2023-05-08T07:23:28.824Z,95057.00
2023-05-08T07:24:28.802Z,95053.00
2023-05-08T07:25:28.827Z,95057.00
2023-05-08T07:26:28.771Z,95055.00
2023-05-08T07:27:28.800Z,95057.00
2023-05-08T07:28:28.773Z,95057.00
2023-05-08T07:29:28.760Z,95055.00
2023-05-08T07:30:28.771Z,95059.00
2023-05-08T07:31:28.790Z,95057.00
2023-05-08T07:32:28.804Z,95055.00
2023-05-08T07:33:28.726Z,95057.00
2023-05-08T07:34:28.728Z,95057.00
2023-05-08T07:35:29.561Z,95059.00
2023-05-08T07:36:28.718Z,95059.00
2023-05-08T07:37:28.709Z,95057.00
2023-05-08T07:38:29.056Z,95055.00
2023-05-08T07:39:28.692Z,95059.00
2023-05-08T07:40:28.827Z,95059.00
2023-05-08T07:41:28.712Z,95059.00
2023-05-08T07:42:28.685Z,95057.00
2023-05-08T07:43:29.557Z,95057.00
2023-05-08T07:44:28.673Z,95057.00
2023-05-08T07:45:29.590Z,95061.00
2023-05-08T07:46:28.697Z,95063.00
2023-05-08T07:47:28.669Z,95067.00
2023-05-08T07:48:28.615Z,95065.00
2023-05-08T07:49:28.601Z,95063.00
2023-05-08T07:50:29.100Z,95065.00
2023-05-08T07:51:28.641Z,95063.00
2023-05-08T07:52:28.606Z,95065.00
2023-05-08T07:53:28.975Z,95067.00
2023-05-08T07:54:28.586Z,95067.00
2023-05-08T07:55:28.562Z,95067.00
2023-05-08T07:56:28.550Z,95065.00
2023-05-08T07:57:28.611Z,95063.00
2023-05-08T07:58:28.560Z,95065.00
2023-05-08T07:59:28.581Z,95061.00
2023-05-08T08:00:28.538Z,95063.00
2023-05-08T08:01:28.865Z,95065.00
2023-05-08T08:03:28.660Z,95063.00
2023-05-08T08:04:28.618Z,95063.00
2023-05-08T08:05:28.519Z,95067.00
2023-05-08T08:06:28.493Z,95059.00
2023-05-08T08:07:28.526Z,95063.00
2023-05-08T08:08:28.493Z,95059.00
2023-05-08T08:09:28.464Z,95061.00
2023-05-08T08:10:28.531Z,95061.00
2023-05-08T08:11:28.502Z,95061.00
2023-05-08T08:12:28.529Z,95061.00
2023-05-08T08:13:28.567Z,95065.00
2023-05-08T08:14:28.475Z,95059.00
2023-05-08T08:15:28.478Z,95063.00
2023-05-08T08:16:28.470Z,95061.00
2023-05-08T08:17:28.828Z,95067.00
2023-05-08T08:18:28.459Z,95063.00
2023-05-08T08:19:28.393Z,95065.00
2023-05-08T08:20:28.467Z,95061.00
2023-05-08T08:21:28.414Z,95059.00
2023-05-08T08:22:28.424Z,95061.00
2023-05-08T08:23:28.366Z,95067.00
2023-05-08T08:24:28.398Z,95065.00
2023-05-08T08:25:28.400Z,95067.00
2023-05-08T08:26:28.364Z,95063.00
2023-05-08T08:27:28.360Z,95065.00
2023-05-08T08:28:28.422Z,95065.00
2023-05-08T08:29:28.419Z,95065.00
2023-05-08T08:30:28.360Z,95065.00
2023-05-08T08:31:28.357Z,95065.00
2023-05-08T08:32:28.339Z,95063.00
2023-05-08T08:33:28.327Z,95065.00
2023-05-08T08:34:28.315Z,95065.00
2023-05-08T08:35:28.361Z,95065.00
2023-05-08T08:36:28.296Z,95063.00
2023-05-08T08:37:28.282Z,95065.00
2023-05-08T08:38:28.269Z,95065.00
2023-05-08T08:39:28.256Z,95063.00
2023-05-08T08:40:28.288Z,95061.00
2023-05-08T08:41:28.233Z,95063.00
2023-05-08T08:42:28.238Z,95063.00
2023-05-08T08:43:29.094Z,95063.00
2023-05-08T08:44:28.336Z,95061.00
2023-05-08T08:45:28.219Z,95061.00
2023-05-08T08:46:28.313Z,95059.00
2023-05-08T08:47:28.228Z,95061.00
2023-05-08T08:48:28.277Z,95059.00
2023-05-08T08:49:28.176Z,95061.00
2023-05-08T08:50:28.203Z,95057.00
2023-05-08T08:51:28.209Z,95061.00
2023-05-08T08:52:28.194Z,95059.00
2023-05-08T08:53:28.264Z,95061.00
2023-05-08T08:54:28.291Z,95059.00
2023-05-08T08:55:28.293Z,95059.00
2023-05-08T08:56:28.207Z,95057.00
2023-05-08T08:57:28.232Z,95059.00
2023-05-08T08:58:28.201Z,95057.00
2023-05-08T08:59:29.141Z,95053.00
2023-05-08T09:00:28.369Z,95057.00
2023-05-08T09:01:28.265Z,95057.00
2023-05-08T09:02:28.355Z,95055.00
2023-05-08T09:03:28.295Z,95059.00
2023-05-08T09:04:28.257Z,95059.00
2023-05-08T09:05:28.233Z,95057.00
2023-05-08T09:06:28.251Z,95055.00
2023-05-08T09:07:28.246Z,95053.00
2023-05-08T09:08:28.224Z,95055.00
2023-05-08T09:09:28.244Z,95053.00
2023-05-08T09:10:28.225Z,95055.00
2023-05-08T09:11:28.218Z,95053.00
2023-05-08T09:12:28.222Z,95053.00
2023-05-08T09:13:28.374Z,95053.00
2023-05-08T09:14:28.191Z,95051.00
2023-05-08T09:15:28.198Z,95051.00
2023-05-08T09:16:28.419Z,95051.00
2023-05-08T09:17:28.232Z,95055.00
2023-05-08T09:18:28.191Z,95053.00
2023-05-08T09:19:29.211Z,95055.00
2023-05-08T09:20:28.205Z,95055.00
2023-05-08T09:21:28.259Z,95057.00
2023-05-08T09:22:28.241Z,95055.00
2023-05-08T09:23:28.290Z,95055.00
2023-05-08T09:24:30.621Z,95055.00
2023-05-08T09:25:28.368Z,95055.00
2023-05-08T09:26:28.308Z,95053.00
2023-05-08T09:27:28.326Z,95055.00
2023-05-08T09:28:28.286Z,95053.00
2023-05-08T09:29:29.090Z,95055.00
2023-05-08T09:30:28.261Z,95053.00
2023-05-08T09:31:28.995Z,95055.00
2023-05-08T09:32:28.380Z,95053.00
2023-05-08T09:33:28.291Z,95051.00
2023-05-08T09:34:28.319Z,95055.00
2023-05-08T09:35:28.225Z,95053.00
2023-05-08T09:36:28.653Z,95055.00
2023-05-08T09:37:28.264Z,95051.00
2023-05-08T09:38:28.203Z,95049.00
2023-05-08T09:39:28.226Z,95053.00
2023-05-08T09:40:28.217Z,95051.00
2023-05-08T09:41:28.637Z,95049.00
2023-05-08T09:42:28.234Z,95055.00
2023-05-08T09:43:28.608Z,95055.00
2023-05-08T09:44:28.266Z,95055.00
2023-05-08T09:45:28.328Z,95055.00
2023-05-08T09:46:28.303Z,95057.00
2023-05-08T09:47:28.361Z,95057.00
2023-05-08T09:48:28.353Z,95057.00
2023-05-08T09:49:28.238Z,95059.00
2023-05-08T09:50:28.312Z,95059.00
2023-05-08T09:51:28.259Z,95059.00
2023-05-08T09:52:28.255Z,95059.00
2023-05-08T09:53:29.124Z,95055.00
2023-05-08T09:54:28.268Z,95059.00
2023-05-08T09:55:28.280Z,95059.00
2023-05-08T09:56:28.259Z,95059.00
2023-05-08T09:57:28.292Z,95061.00
2023-05-08T09:58:28.633Z,95061.00
2023-05-08T09:59:28.273Z,95059.00
2023-05-08T10:00:28.289Z,95065.00
2023-05-08T10:01:28.356Z,95065.00
2023-05-08T10:02:28.318Z,95061.00
2023-05-08T10:03:28.295Z,95061.00
2023-05-08T10:04:28.339Z,95061.00
2023-05-08T10:05:28.367Z,95063.00
2023-05-08T10:06:28.325Z,95059.00
2023-05-08T10:07:28.334Z,95059.00
2023-05-08T10:08:28.363Z,95055.00
2023-05-08T10:09:35.649Z,95055.00
2023-05-08T10:10:29.313Z,95059.00
2023-05-08T10:11:28.306Z,95057.00
2023-05-08T10:12:28.362Z,95055.00
2023-05-08T10:13:28.402Z,95055.00
2023-05-08T10:14:28.291Z,95053.00
2023-05-08T10:15:28.260Z,95053.00
2023-05-08T10:16:28.383Z,95053.00
2023-05-08T10:17:28.310Z,95053.00
2023-05-08T10:18:28.261Z,95053.00
2023-05-08T10:19:28.273Z,95055.00
2023-05-08T10:20:28.347Z,95055.00
2023-05-08T10:21:28.237Z,95053.00
2023-05-08T10:22:28.249Z,95051.00
2023-05-08T10:23:28.223Z,95049.00
2023-05-08T10:24:28.220Z,95049.00
2023-05-08T10:25:28.191Z,95051.00
2023-05-08T10:26:28.209Z,95049.00
2023-05-08T10:27:28.201Z,95047.00
2023-05-08T10:28:28.171Z,95047.00
2023-05-08T10:29:28.282Z,95049.00
2023-05-08T10:30:28.299Z,95047.00
2023-05-08T10:31:28.485Z,95045.00
2023-05-08T10:32:28.437Z,95043.00
2023-05-08T10:33:30.884Z,95039.00
2023-05-08T10:34:28.752Z,95039.00
2023-05-08T10:35:28.769Z,95039.00
2023-05-08T10:36:30.970Z,95037.00
2023-05-08T10:37:28.868Z,95037.00
2023-05-08T10:38:28.850Z,95037.00
2023-05-08T10:39:28.856Z,95036.00
2023-05-08T10:40:28.909Z,95034.00
2023-05-08T10:41:28.826Z,95034.00
2023-05-08T10:42:28.804Z,95032.00
2023-05-08T10:43:28.898Z,95032.00
2023-05-08T10:44:28.840Z,95032.00
2023-05-08T10:45:28.819Z,95030.00
2023-05-08T10:46:28.855Z,95030.00
2023-05-08T10:47:28.868Z,95028.00
2023-05-08T10:48:28.818Z,95026.00
2023-05-08T10:49:28.821Z,95028.00
2023-05-08T10:50:28.823Z,95028.00
2023-05-08T10:51:28.843Z,95022.00
2023-05-08T10:52:28.859Z,95020.00
2023-05-08T10:53:28.852Z,95020.00
2023-05-08T10:54:29.777Z,95018.00
2023-05-08T10:55:28.831Z,95018.00
2023-05-08T10:56:28.999Z,95016.00
2023-05-08T10:57:28.862Z,95016.00
2023-05-08T10:58:28.895Z,95014.00
2023-05-08T10:59:28.864Z,95010.00
2023-05-08T11:00:28.860Z,95008.00
2023-05-08T11:01:28.905Z,95006.00
2023-05-08T11:02:28.995Z,95006.00
2023-05-08T11:03:32.723Z,95004.00
2023-05-08T11:04:29.011Z,95004.00
2023-05-08T11:05:28.866Z,95006.00
2023-05-08T11:06:28.835Z,95002.00
2023-05-08T11:07:28.829Z,95002.00
2023-05-08T11:08:29.223Z,95004.00
2023-05-08T11:09:28.839Z,95002.00
2023-05-08T11:10:28.833Z,94998.00
2023-05-08T11:11:28.809Z,95000.00
2023-05-08T11:12:28.816Z,94998.00
2023-05-08T11:13:28.916Z,94998.00
2023-05-08T11:14:28.778Z,94992.00
2023-05-08T11:15:28.820Z,94990.00
2023-05-08T11:16:28.844Z,94988.00
2023-05-08T11:17:28.921Z,94986.00
2023-05-08T11:18:41.908Z,94982.00
2023-05-08T11:19:29.815Z,94984.00
2023-05-08T11:20:30.199Z,94982.00
2023-05-08T11:21:28.794Z,94982.00
2023-05-08T11:22:28.734Z,94981.00
2023-05-08T11:23:29.176Z,94979.00
2023-05-08T11:24:28.745Z,94975.00
2023-05-08T11:25:28.724Z,94977.00
2023-05-08T11:26:28.693Z,94975.00
2023-05-08T11:27:28.690Z,94975.00
2023-05-08T11:28:28.730Z,94971.00
2023-05-08T11:29:28.745Z,94971.00
2023-05-08T11:30:28.688Z,94967.00
2023-05-08T11:31:28.739Z,94971.00
2023-05-08T11:32:28.696Z,94967.00
2023-05-08T11:33:28.700Z,94965.00
2023-05-08T11:34:28.650Z,94963.00
2023-05-08T11:35:28.644Z,94961.00
2023-05-08T11:36:28.673Z,94959.00
2023-05-08T11:37:28.664Z,94961.00
2023-05-08T11:38:28.687Z,94961.00
2023-05-08T11:39:28.602Z,94959.00
2023-05-08T11:40:28.604Z,94959.00
2023-05-08T11:41:28.612Z,94963.00
2023-05-08T11:42:28.582Z,94959.00
2023-05-08T11:43:28.620Z,94961.00
2023-05-08T11:44:28.556Z,94959.00
2023-05-08T11:45:28.553Z,94959.00
2023-05-08T11:46:28.674Z,94961.00